Time;durP1;ratioP1;P1;durP2;ratioP2;P2;SDS_P1;SDS_P2;PMS_P1;PMS_P2;Temp;Humidity;BMP_temperature;BMP_pressure;BME280_temperature;BME280_humidity;BME280_pressure;Samples;Min_cycle;Max_cycle;Signal;HPM_P1;HPM_P2
2023/08/09 00:00:09;;;;;;;0.00;0.00;;;;;;;;;;7387037;19;20219;-71
2023/08/09 00:02:38;;;;;;;0.00;0.00;;;;;;;;;;7390891;19;20220;-72
2023/08/09 00:05:08;;;;;;;0.00;0.00;;;;;;;;;;7392165;19;20152;-71
2023/08/09 00:07:37;;;;;;;0.00;0.00;;;;;;;;;;7391856;19;20145;-71
2023/08/09 00:10:06;;;;;;;0.00;0.00;;;;;;;;;;7390478;19;20152;-71
2023/08/09 00:12:38;;;;;;;0.00;0.00;;;;;;;;;;7390004;19;20219;-70
2023/08/09 00:15:07;;;;;;;0.00;0.00;;;;;;;;;;7389271;19;20152;-71
2023/08/09 00:17:36;;;;;;;0.00;0.00;;;;;;;;;;7388908;19;20647;-75
2023/08/09 00:20:07;;;;;;;0.00;0.00;;;;;;;;;;7389901;19;20160;-72
2023/08/09 00:22:36;;;;;;;0.00;0.00;;;;;;;;;;7388913;19;20176;-71
2023/08/09 00:25:06;;;;;;;0.00;0.00;;;;;;;;;;7390200;19;20192;-73
2023/08/09 00:27:37;;;;;;;0.00;0.00;;;;;;;;;;7390515;19;20161;-71
2023/08/09 00:30:10;;;;;;;0.00;0.00;;;;;;;;;;7389087;19;20160;-73
2023/08/09 00:32:39;;;;;;;0.00;0.00;;;;;;;;;;7390114;19;20178;-71
2023/08/09 00:35:08;;;;;;;0.00;0.00;;;;;;;;;;7388227;19;20155;-72
2023/08/09 00:37:35;;;;;;;0.00;0.00;;;;;;;;;;7389134;19;20172;-70
2023/08/09 00:40:07;;;;;;;0.00;0.00;;;;;;;;;;7392561;19;20154;-70
2023/08/09 00:42:38;;;;;;;0.00;0.00;;;;;;;;;;7388174;19;20208;-70
2023/08/09 00:45:08;;;;;;;0.00;0.00;;;;;;;;;;7388658;19;20145;-69
2023/08/09 00:47:37;;;;;;;0.00;0.00;;;;;;;;;;7389511;19;20136;-70
2023/08/09 00:50:06;;;;;;;0.00;0.00;;;;;;;;;;7389208;19;20153;-73
2023/08/09 00:52:35;;;;;;;0.00;0.00;;;;;;;;;;7387625;19;20192;-70
2023/08/09 00:55:05;;;;;;;0.00;0.00;;;;;;;;;;7382102;19;20163;-71
2023/08/09 00:57:34;;;;;;;0.00;0.00;;;;;;;;;;7385588;19;20152;-71
2023/08/09 01:00:06;;;;;;;0.00;0.00;;;;;;;;;;7389992;19;20161;-71
2023/08/09 01:02:36;;;;;;;0.00;0.00;;;;;;;;;;7388152;19;20152;-71
2023/08/09 01:05:05;;;;;;;0.00;0.00;;;;;;;;;;7387834;19;20148;-72
2023/08/09 01:07:39;;;;;;;0.00;0.00;;;;;;;;;;7388067;19;20144;-70
2023/08/09 01:10:12;;;;;;;0.00;0.00;;;;;;;;;;7384725;19;20192;-73
2023/08/09 01:12:43;;;;;;;0.00;0.00;;;;;;;;;;7384276;19;20184;-72
2023/08/09 01:15:16;;;;;;;0.00;0.00;;;;;;;;;;7387897;19;20177;-70
2023/08/09 01:17:48;;;;;;;0.00;0.00;;;;;;;;;;7389668;19;20143;-70
2023/08/09 01:20:18;;;;;;;0.00;0.00;;;;;;;;;;7388071;19;20140;-71
2023/08/09 01:22:49;;;;;;;0.00;0.00;;;;;;;;;;7386203;19;20190;-72
2023/08/09 01:25:21;;;;;;;0.00;0.00;;;;;;;;;;7385910;19;20647;-73
2023/08/09 01:27:51;;;;;;;0.00;0.00;;;;;;;;;;7387660;19;20164;-76
2023/08/09 01:30:20;;;;;;;0.00;0.00;;;;;;;;;;7387955;19;20160;-73
2023/08/09 01:32:48;;;;;;;0.00;0.00;;;;;;;;;;7387328;19;20204;-70
2023/08/09 01:35:18;;;;;;;0.00;0.00;;;;;;;;;;7388545;19;20129;-70
2023/08/09 01:37:50;;;;;;;0.00;0.00;;;;;;;;;;7389212;19;20137;-70
2023/08/09 01:40:23;;;;;;;0.00;0.00;;;;;;;;;;7389167;19;20160;-73
2023/08/09 01:42:54;;;;;;;0.00;0.00;;;;;;;;;;7386602;19;20212;-71
2023/08/09 01:45:23;;;;;;;0.00;0.00;;;;;;;;;;7388114;19;20140;-70
2023/08/09 01:47:53;;;;;;;0.00;0.00;;;;;;;;;;7388680;19;20144;-71
2023/08/09 01:50:22;;;;;;;0.00;0.00;;;;;;;;;;7389671;19;20129;-72
2023/08/09 01:52:55;;;;;;;0.00;0.00;;;;;;;;;;7387407;19;20260;-72
2023/08/09 01:55:27;;;;;;;0.00;0.00;;;;;;;;;;7386885;19;20165;-71
2023/08/09 01:57:57;;;;;;;0.00;0.00;;;;;;;;;;7386340;19;20153;-72
2023/08/09 02:00:27;;;;;;;0.00;0.00;;;;;;;;;;7386402;19;20671;-72
2023/08/09 02:02:56;;;;;;;0.00;0.00;;;;;;;;;;7385851;19;20544;-70
2023/08/09 02:05:25;;;;;;;0.00;0.00;;;;;;;;;;7386171;19;20174;-71
2023/08/09 02:07:54;;;;;;;0.00;0.00;;;;;;;;;;7385877;19;20157;-70
2023/08/09 02:10:26;;;;;;;0.00;0.00;;;;;;;;;;7388076;19;20137;-70
2023/08/09 02:12:55;;;;;;;0.00;0.00;;;;;;;;;;7385178;19;20194;-70
2023/08/09 02:15:25;;;;;;;0.00;0.00;;;;;;;;;;7386108;19;20592;-72
2023/08/09 02:17:57;;;;;;;0.00;0.00;;;;;;;;;;7385946;19;20173;-71
2023/08/09 02:20:30;;;;;;;0.00;0.00;;;;;;;;;;7385203;19;20216;-71
2023/08/09 02:22:59;;;;;;;0.00;0.00;;;;;;;;;;7385954;19;20180;-74
2023/08/09 02:25:30;;;;;;;0.00;0.00;;;;;;;;;;7389415;19;20642;-73
2023/08/09 02:27:59;;;;;;;0.00;0.00;;;;;;;;;;7395128;19;20161;-71
2023/08/09 02:30:31;;;;;;;0.00;0.00;;;;;;;;;;7392739;19;20152;-72
2023/08/09 02:33:00;;;;;;;0.00;0.00;;;;;;;;;;7393956;19;20149;-73
2023/08/09 02:35:35;;;;;;;0.00;0.00;;;;;;;;;;7386515;19;20159;-72
2023/08/09 02:38:04;;;;;;;0.00;0.00;;;;;;;;;;7385583;19;20160;-72
2023/08/09 02:40:36;;;;;;;0.00;0.00;;;;;;;;;;7384236;19;20157;-71
2023/08/09 02:43:05;;;;;;;0.00;0.00;;;;;;;;;;7384024;19;20201;-72
2023/08/09 02:45:34;;;;;;;0.00;0.00;;;;;;;;;;7382273;19;20181;-69
2023/08/09 02:48:03;;;;;;;0.00;0.00;;;;;;;;;;7384592;19;20160;-74
2023/08/09 02:50:32;;;;;;;0.00;0.00;;;;;;;;;;7384986;19;20141;-71
2023/08/09 02:53:03;;;;;;;0.00;0.00;;;;;;;;;;7383264;19;20180;-71
2023/08/09 02:55:32;;;;;;;0.00;0.00;;;;;;;;;;7380220;19;20159;-72
2023/08/09 02:58:04;;;;;;;0.00;0.00;;;;;;;;;;7381998;19;20148;-72
2023/08/09 03:00:33;;;;;;;0.00;0.00;;;;;;;;;;7381766;19;20157;-70
2023/08/09 03:03:04;;;;;;;0.00;0.00;;;;;;;;;;7380675;19;20191;-70
2023/08/09 03:05:35;;;;;;;0.00;0.00;;;;;;;;;;7380345;19;20173;-73
2023/08/09 03:08:04;;;;;;;0.00;0.00;;;;;;;;;;7384106;19;20140;-72
2023/08/09 03:10:33;;;;;;;0.00;0.00;;;;;;;;;;7383955;19;20153;-73
2023/08/09 03:13:04;;;;;;;0.00;0.00;;;;;;;;;;7383457;19;20174;-71
2023/08/09 03:15:34;;;;;;;0.00;0.00;;;;;;;;;;7382381;19;20156;-70
2023/08/09 03:18:03;;;;;;;0.00;0.00;;;;;;;;;;7383577;19;20177;-75
2023/08/09 03:20:34;;;;;;;0.10;0.10;;;;;;;;;;7383390;19;20177;-71
2023/08/09 03:23:04;;;;;;;0.00;0.00;;;;;;;;;;7384657;19;20149;-72
2023/08/09 03:25:34;;;;;;;0.00;0.00;;;;;;;;;;7382480;19;20156;-75
2023/08/09 03:28:06;;;;;;;0.00;0.00;;;;;;;;;;7385347;19;20764;-74
2023/08/09 03:30:36;;;;;;;0.00;0.00;;;;;;;;;;7381802;19;20164;-73
2023/08/09 03:33:05;;;;;;;0.00;0.00;;;;;;;;;;7382790;19;20176;-71
2023/08/09 03:35:35;;;;;;;0.00;0.00;;;;;;;;;;7381494;19;20156;-73
2023/08/09 03:38:05;;;;;;;0.00;0.00;;;;;;;;;;7383007;19;20164;-72
2023/08/09 03:40:34;;;;;;;0.00;0.00;;;;;;;;;;7382347;19;20161;-72
2023/08/09 03:43:05;;;;;;;0.00;0.00;;;;;;;;;;7382165;19;20188;-73
2023/08/09 03:45:34;;;;;;;0.10;0.10;;;;;;;;;;7381777;19;20153;-75
2023/08/09 03:48:04;;;;;;;0.00;0.00;;;;;;;;;;7384933;19;20141;-71
2023/08/09 03:50:33;;;;;;;0.00;0.00;;;;;;;;;;7381683;19;20161;-73
2023/08/09 03:53:02;;;;;;;0.00;0.00;;;;;;;;;;7381936;19;20180;-74
2023/08/09 03:55:31;;;;;;;0.00;0.00;;;;;;;;;;7381535;19;20156;-72
2023/08/09 03:58:00;;;;;;;0.00;0.00;;;;;;;;;;7382369;19;20157;-72
2023/08/09 04:00:32;;;;;;;0.00;0.00;;;;;;;;;;7382130;19;20227;-73
2023/08/09 04:03:02;;;;;;;0.00;0.00;;;;;;;;;;7381637;19;20180;-72
2023/08/09 04:05:34;;;;;;;0.00;0.00;;;;;;;;;;7380225;19;20164;-74
2023/08/09 04:08:03;;;;;;;0.00;0.00;;;;;;;;;;7382402;19;20160;-73
2023/08/09 04:10:32;;;;;;;0.00;0.00;;;;;;;;;;7381133;19;20156;-72
2023/08/09 04:13:02;;;;;;;0.00;0.00;;;;;;;;;;7383751;19;20157;-73
2023/08/09 04:15:35;;;;;;;0.00;0.00;;;;;;;;;;7379887;19;20156;-73
2023/08/09 04:18:04;;;;;;;0.00;0.00;;;;;;;;;;7381695;19;20228;-72
2023/08/09 04:20:35;;;;;;;0.00;0.00;;;;;;;;;;7382062;19;20162;-73
2023/08/09 04:23:05;;;;;;;0.00;0.00;;;;;;;;;;7379227;19;20195;-74
2023/08/09 04:25:35;;;;;;;0.00;0.00;;;;;;;;;;7377406;19;20159;-75
2023/08/09 04:28:04;;;;;;;0.03;0.03;;;;;;;;;;7382870;19;20129;-75
2023/08/09 04:30:35;;;;;;;0.00;0.00;;;;;;;;;;7382674;19;20150;-75
2023/08/09 04:33:05;;;;;;;0.00;0.00;;;;;;;;;;7382109;19;20646;-74
2023/08/09 04:35:35;;;;;;;0.00;0.00;;;;;;;;;;7379405;19;20153;-75
2023/08/09 04:38:05;;;;;;;0.00;0.00;;;;;;;;;;7382879;19;20162;-74
2023/08/09 04:40:34;;;;;;;0.00;0.00;;;;;;;;;;7383187;19;20159;-75
2023/08/09 04:43:06;;;;;;;0.00;0.00;;;;;;;;;;7381069;19;20228;-74
2023/08/09 04:45:38;;;;;;;0.00;0.00;;;;;;;;;;7377254;19;20161;-74
2023/08/09 04:48:08;;;;;;;0.00;0.00;;;;;;;;;;7380806;19;20156;-75
2023/08/09 04:50:37;;;;;;;0.00;0.00;;;;;;;;;;7378689;19;20148;-76
2023/08/09 04:53:06;;;;;;;0.00;0.00;;;;;;;;;;7379635;19;20196;-76
2023/08/09 04:55:35;;;;;;;0.00;0.00;;;;;;;;;;7379462;19;20160;-77
2023/08/09 04:58:04;;;;;;;0.00;0.00;;;;;;;;;;7379780;19;20152;-76
2023/08/09 05:00:33;;;;;;;0.00;0.00;;;;;;;;;;7380443;19;20156;-76
2023/08/09 05:03:05;;;;;;;0.10;0.10;;;;;;;;;;7379581;19;20180;-75
2023/08/09 05:05:34;;;;;;;0.00;0.00;;;;;;;;;;7380619;19;20168;-75
2023/08/09 05:08:03;;;;;;;0.00;0.00;;;;;;;;;;7381476;19;20156;-74
2023/08/09 05:10:32;;;;;;;0.00;0.00;;;;;;;;;;7381300;19;20140;-74
2023/08/09 05:13:01;;;;;;;0.00;0.00;;;;;;;;;;7379127;19;20148;-76
2023/08/09 05:15:30;;;;;;;0.00;0.00;;;;;;;;;;7378214;19;20156;-76
2023/08/09 05:17:59;;;;;;;0.00;0.00;;;;;;;;;;7380217;19;20149;-75
2023/08/09 05:20:30;;;;;;;0.00;0.00;;;;;;;;;;7379412;19;20160;-75
2023/08/09 05:22:59;;;;;;;0.00;0.00;;;;;;;;;;7378083;19;20707;-75
2023/08/09 05:25:28;;;;;;;0.00;0.00;;;;;;;;;;7378578;19;20132;-69
2023/08/09 05:27:57;;;;;;;0.00;0.00;;;;;;;;;;7378491;19;20632;-74
2023/08/09 05:30:26;;;;;;;0.00;0.00;;;;;;;;;;7378992;19;20535;-72
2023/08/09 05:32:57;;;;;;;0.00;0.00;;;;;;;;;;7377248;19;20152;-73
2023/08/09 05:35:26;;;;;;;0.00;0.00;;;;;;;;;;7380237;19;20208;-70
2023/08/09 05:37:58;;;;;;;0.00;0.00;;;;;;;;;;7380726;19;20137;-74
2023/08/09 05:40:27;;;;;;;0.00;0.00;;;;;;;;;;7380979;19;20174;-73
2023/08/09 05:42:56;;;;;;;0.00;0.00;;;;;;;;;;7380044;19;20156;-74
2023/08/09 05:45:25;;;;;;;0.00;0.00;;;;;;;;;;7378225;19;20161;-71
2023/08/09 05:47:54;;;;;;;0.00;0.00;;;;;;;;;;7379744;19;20133;-73
2023/08/09 05:50:23;;;;;;;0.03;0.03;;;;;;;;;;7381212;19;20133;-72
2023/08/09 05:52:52;;;;;;;0.00;0.00;;;;;;;;;;7379590;19;20153;-73
2023/08/09 05:55:23;;;;;;;0.00;0.00;;;;;;;;;;7378169;19;20153;-73
2023/08/09 05:57:52;;;;;;;0.00;0.00;;;;;;;;;;7378819;19;20161;-74
2023/08/09 06:00:23;;;;;;;0.00;0.00;;;;;;;;;;7387782;19;20143;-72
2023/08/09 06:02:52;;;;;;;0.00;0.00;;;;;;;;;;7384381;19;20198;-72
2023/08/09 06:05:25;;;;;;;0.00;0.00;;;;;;;;;;7382843;19;20200;-71
2023/08/09 06:07:55;;;;;;;0.00;0.00;;;;;;;;;;7387791;19;20133;-70
2023/08/09 06:10:26;;;;;;;0.00;0.00;;;;;;;;;;7386917;19;20234;-73
2023/08/09 06:12:56;;;;;;;0.00;0.00;;;;;;;;;;7385203;19;20205;-73
2023/08/09 06:15:25;;;;;;;0.00;0.00;;;;;;;;;;7386780;19;20151;-73
2023/08/09 06:17:54;;;;;;;0.00;0.00;;;;;;;;;;7386678;19;20153;-70
2023/08/09 06:20:27;;;;;;;0.00;0.00;;;;;;;;;;7385751;19;20160;-71
2023/08/09 06:22:56;;;;;;;0.00;0.00;;;;;;;;;;7386496;19;20177;-73
2023/08/09 06:25:28;;;;;;;0.00;0.00;;;;;;;;;;7384260;19;20137;-73
2023/08/09 06:27:57;;;;;;;0.00;0.00;;;;;;;;;;7386870;19;20165;-71
2023/08/09 06:30:26;;;;;;;0.00;0.00;;;;;;;;;;7385857;19;20164;-71
2023/08/09 06:32:56;;;;;;;0.00;0.00;;;;;;;;;;7387255;19;20160;-72
2023/08/09 06:35:25;;;;;;;0.00;0.00;;;;;;;;;;7386155;19;20214;-72
2023/08/09 06:37:54;;;;;;;0.00;0.00;;;;;;;;;;7385893;19;20160;-71
2023/08/09 06:40:23;;;;;;;0.00;0.00;;;;;;;;;;7385062;19;20172;-71
2023/08/09 06:42:54;;;;;;;0.00;0.00;;;;;;;;;;7386516;19;20157;-72
2023/08/09 06:45:27;;;;;;;0.00;0.00;;;;;;;;;;7382251;19;20158;-72
2023/08/09 06:47:56;;;;;;;0.00;0.00;;;;;;;;;;7386611;19;20136;-73
2023/08/09 06:50:26;;;;;;;0.00;0.00;;;;;;;;;;7385810;19;20179;-73
2023/08/09 06:52:55;;;;;;;0.00;0.00;;;;;;;;;;7384641;19;20152;-73
2023/08/09 06:55:24;;;;;;;0.00;0.00;;;;;;;;;;7386581;19;20141;-73
2023/08/09 06:57:56;;;;;;;0.00;0.00;;;;;;;;;;7383865;19;20160;-72
2023/08/09 07:00:25;;;;;;;0.00;0.00;;;;;;;;;;7386671;19;20743;-74
2023/08/09 07:02:54;;;;;;;0.00;0.00;;;;;;;;;;7385588;19;20169;-72
2023/08/09 07:05:24;;;;;;;0.00;0.00;;;;;;;;;;7381629;19;20216;-74
2023/08/09 07:07:54;;;;;;;0.00;0.00;;;;;;;;;;7386085;19;20131;-72
2023/08/09 07:10:24;;;;;;;0.00;0.00;;;;;;;;;;7383023;19;20165;-72
2023/08/09 07:12:56;;;;;;;0.00;0.00;;;;;;;;;;7383061;19;20180;-74
2023/08/09 07:15:25;;;;;;;0.00;0.00;;;;;;;;;;7385403;19;20121;-71
2023/08/09 07:17:54;;;;;;;0.00;0.00;;;;;;;;;;7386283;19;20229;-71
2023/08/09 07:20:23;;;;;;;0.00;0.00;;;;;;;;;;7386050;19;20196;-71
2023/08/09 07:22:52;;;;;;;0.00;0.00;;;;;;;;;;7384226;19;20184;-73
2023/08/09 07:25:21;;;;;;;0.00;0.00;;;;;;;;;;7383066;19;20152;-72
2023/08/09 07:27:52;;;;;;;0.00;0.00;;;;;;;;;;7383931;19;20180;-75
2023/08/09 07:30:24;;;;;;;0.00;0.00;;;;;;;;;;7385721;19;20129;-74
2023/08/09 07:32:53;;;;;;;0.00;0.00;;;;;;;;;;7382742;19;20184;-70
2023/08/09 07:35:22;;;;;;;0.00;0.00;;;;;;;;;;7381824;19;20163;-72
2023/08/09 07:37:51;;;;;;;0.00;0.00;;;;;;;;;;7385331;19;20157;-69
2023/08/09 07:40:20;;;;;;;0.00;0.00;;;;;;;;;;7384942;19;20161;-73
2023/08/09 07:42:49;;;;;;;0.00;0.00;;;;;;;;;;7383395;19;20184;-72
2023/08/09 07:45:18;;;;;;;0.00;0.00;;;;;;;;;;7381612;19;20152;-71
2023/08/09 07:47:49;;;;;;;0.00;0.00;;;;;;;;;;7384781;19;20829;-72
2023/08/09 07:50:18;;;;;;;0.00;0.00;;;;;;;;;;7382653;19;20157;-69
2023/08/09 07:52:47;;;;;;;0.00;0.00;;;;;;;;;;7384067;19;20160;-73
2023/08/09 07:55:17;;;;;;;0.00;0.00;;;;;;;;;;7383089;19;20144;-70
2023/08/09 07:57:46;;;;;;;0.00;0.00;;;;;;;;;;7383670;19;20129;-71
2023/08/09 08:00:17;;;;;;;0.00;0.00;;;;;;;;;;7384069;19;20165;-70
2023/08/09 08:02:47;;;;;;;0.00;0.00;;;;;;;;;;7384329;19;20152;-71
2023/08/09 08:05:18;;;;;;;0.00;0.00;;;;;;;;;;7379615;19;20164;-71
2023/08/09 08:07:47;;;;;;;0.00;0.00;;;;;;;;;;7384252;19;20647;-70
2023/08/09 08:10:18;;;;;;;0.00;0.00;;;;;;;;;;7380972;19;20164;-73
2023/08/09 08:12:48;;;;;;;0.00;0.00;;;;;;;;;;7382005;19;20559;-71
2023/08/09 08:15:17;;;;;;;0.00;0.00;;;;;;;;;;7380743;19;20161;-72
2023/08/09 08:17:48;;;;;;;0.00;0.00;;;;;;;;;;7383814;19;20680;-71
2023/08/09 08:20:20;;;;;;;0.00;0.00;;;;;;;;;;7380092;19;20161;-70
2023/08/09 08:22:49;;;;;;;0.00;0.00;;;;;;;;;;7383243;19;20177;-70
2023/08/09 08:25:19;;;;;;;0.00;0.00;;;22.20;99.90;;;;;;7378690;19;20153;-70
2023/08/09 08:27:48;;;;;;;0.00;0.00;;;22.50;99.90;;;;;;7384038;19;20141;-69
2023/08/09 08:30:20;;;;;;;0.00;0.00;;;22.70;99.90;;;;;;7381427;19;20145;-70
2023/08/09 08:32:49;;;;;;;0.00;0.00;;;22.70;99.90;;;;;;7384048;19;20149;-69
2023/08/09 08:35:33;;;;;;;0.00;0.00;;;23.00;99.90;;;;;;7378899;19;20163;-69
2023/08/09 08:38:02;;;;;;;0.00;0.00;;;;;;;;;;7382734;19;20174;-70
2023/08/09 08:40:33;;;;;;;0.00;0.00;;;;;;;;;;7381356;19;20168;-71
2023/08/09 08:43:02;;;;;;;0.00;0.00;;;;;;;;;;7382303;19;20176;-71
2023/08/09 08:45:31;;;;;;;0.00;0.00;;;;;;;;;;7380750;19;20135;-70
2023/08/09 08:48:00;;;;;;;0.00;0.00;;;;;;;;;;7381425;19;20250;-72
2023/08/09 08:50:33;;;;;;;0.00;0.00;;;;;;;;;;7381991;19;20168;-70
2023/08/09 08:53:02;;;;;;;0.00;0.00;;;;;;;;;;7381370;19;20164;-68
2023/08/09 08:55:32;;;;;;;0.00;0.00;;;;;;;;;;7381063;19;20137;-72
2023/08/09 08:58:01;;;;;;;0.00;0.00;;;;;;;;;;7380410;19;20220;-71
2023/08/09 09:00:30;;;;;;;0.00;0.00;;;;;;;;;;7382110;19;20132;-70
2023/08/09 09:02:59;;;;;;;0.00;0.00;;;;;;;;;;7380975;19;20159;-69
2023/08/09 09:05:28;;;;;;;0.00;0.00;;;;;;;;;;7378024;19;20161;-71
2023/08/09 09:08:00;;;;;;;0.00;0.00;;;;;;;;;;7381770;19;20173;-68
2023/08/09 09:10:29;;;;;;;0.00;0.00;;;;;;;;;;7382525;19;20150;-70
2023/08/09 09:12:58;;;;;;;0.00;0.00;;;;;;;;;;7381779;19;20152;-70
2023/08/09 09:15:28;;;;;;;0.00;0.00;;;;;;;;;;7379544;19;20144;-70
2023/08/09 09:17:57;;;;;;;0.00;0.00;;;;;;;;;;7382578;19;20141;-71
2023/08/09 09:20:29;;;;;;;0.00;0.00;;;;;;;;;;7378437;19;20620;-70
2023/08/09 09:23:01;;;;;;;0.00;0.00;;;;;;;;;;7382496;19;20177;-69
2023/08/09 09:25:30;;;;;;;0.00;0.00;;;;;;;;;;7380960;19;20133;-70
2023/08/09 09:28:00;;;;;;;0.00;0.00;;;;;;;;;;7380484;19;20184;-69
2023/08/09 09:30:31;;;;;;;0.00;0.00;;;;;;;;;;7381192;19;20145;-69
2023/08/09 09:33:03;;;;;;;0.00;0.00;;;;;;;;;;7387729;19;20203;-70
2023/08/09 09:35:33;;;;;;;0.00;0.00;;;;;;;;;;7393195;19;20156;-68
2023/08/09 09:38:08;;;;;;;0.00;0.00;;;;;;;;;;7394874;19;20156;-70
2023/08/09 09:40:38;;;;;;;0.00;0.00;;;;;;;;;;7394346;19;20172;-69
2023/08/09 09:43:08;;;;;;;0.00;0.00;;;;;;;;;;7395923;19;20157;-70
2023/08/09 09:45:41;;;;;;;0.00;0.00;;;;;;;;;;7393006;19;20160;-70
2023/08/09 09:48:18;;;;;;;0.00;0.00;;;;;;;;;;7394104;19;20149;-69
2023/08/09 09:50:48;;;;;;;0.00;0.00;;;;;;;;;;7394711;19;20177;-69
2023/08/09 09:53:20;;;;;;;0.00;0.00;;;;;;;;;;7393991;19;20180;-70
2023/08/09 09:55:50;;;;;;;0.00;0.00;;;;;;;;;;7393662;19;20170;-72
2023/08/09 09:58:18;;;;;;;0.00;0.00;;;;;;;;;;7393270;19;20212;-69
2023/08/09 10:00:52;;;;;;;0.00;0.00;;;;;;;;;;7396173;19;20143;-71
2023/08/09 10:03:25;;;;;;;0.00;0.00;;;;;;;;;;7392104;19;20188;-72
2023/08/09 10:05:55;;;;;;;0.00;0.00;;;;;;;;;;7391457;19;20216;-68
2023/08/09 10:08:28;;;;;;;0.00;0.00;;;;;;;;;;7391829;19;20141;-70
2023/08/09 10:10:58;;;;;;;0.00;0.00;;;;;;;;;;7394526;19;20148;-70
2023/08/09 10:13:29;;;;;;;0.00;0.00;;;;;;;;;;7390086;19;20168;-70
2023/08/09 10:16:00;;;;;;;0.00;0.00;;;;;;;;;;7392296;19;20186;-70
2023/08/09 10:18:32;;;;;;;0.00;0.00;;;;;;;;;;7391926;19;20148;-69
2023/08/09 10:21:02;;;;;;;0.00;0.00;;;;;;;;;;7393588;19;20189;-72
2023/08/09 10:23:34;;;;;;;0.00;0.00;;;;;;;;;;7391727;19;20152;-68
2023/08/09 10:26:03;;;;;;;0.00;0.00;;;;;;;;;;7393410;19;20143;-70
2023/08/09 10:28:47;;;;;;;0.00;0.00;;;;;;;;;;7392302;19;20168;-69
2023/08/09 10:31:16;;;;;;;0.00;0.00;;;;;;;;;;7391851;19;20164;-69
2023/08/09 10:34:05;;;;;;;0.00;0.00;;;25.20;99.90;;;;;;7391163;19;20201;-71
2023/08/09 10:36:35;;;;;;;0.00;0.00;;;24.30;99.90;;;;;;7393028;19;20140;-73
2023/08/09 10:39:11;;;;;;;0.00;0.00;;;24.30;99.90;;;;;;7392281;19;20191;-73
2023/08/09 10:41:40;;;;;;;0.00;0.00;;;24.20;99.90;;;;;;7393014;19;20156;-71
2023/08/09 10:44:08;;;;;;;0.00;0.00;;;23.90;99.90;;;;;;7385823;19;20187;-69
2023/08/09 10:46:37;;;;;;;0.00;0.00;;;23.70;99.90;;;;;;7382541;19;20145;-73
2023/08/09 10:49:06;;;;;;;0.00;0.00;;;23.60;99.90;;;;;;7385488;19;20148;-71
2023/08/09 10:51:35;;;;;;;0.00;0.00;;;23.50;99.90;;;;;;7384350;19;20156;-70
2023/08/09 10:54:09;;;;;;;0.00;0.00;;;23.40;99.90;;;;;;7383332;19;20187;-70
2023/08/09 10:56:46;;;;;;;0.00;0.00;;;23.50;99.90;;;;;;7385825;19;20133;-71
2023/08/09 10:59:23;;;;;;;0.00;0.00;;;23.60;99.90;;;;;;7383947;19;20230;-71
2023/08/09 11:01:53;;;;;;;0.00;0.00;;;23.70;99.90;;;;;;7384788;19;20160;-70
2023/08/09 11:04:21;;;;;;;0.00;0.00;;;23.80;99.90;;;;;;7382792;19;20723;-70
2023/08/09 11:06:51;;;;;;;0.00;0.00;;;24.00;99.90;;;;;;7382187;19;20152;-72
2023/08/09 11:09:25;;;;;;;0.00;0.00;;;24.20;99.90;;;;;;7385201;19;20176;-71
2023/08/09 11:11:54;;;;;;;0.00;0.00;;;24.30;99.90;;;;;;7384784;19;20153;-71
2023/08/09 11:14:24;;;;;;;0.00;0.00;;;24.20;99.90;;;;;;7382983;19;20188;-72
2023/08/09 11:16:54;;;;;;;0.00;0.00;;;24.20;99.90;;;;;;7383891;19;20155;-73
2023/08/09 11:19:23;;;;;;;0.00;0.00;;;;;;;;;;7385925;19;20141;-72
2023/08/09 11:21:53;;;;;;;0.00;0.00;;;;;;;;;;7385101;19;20152;-72
2023/08/09 11:24:26;;;;;;;0.00;0.00;;;;;;;;;;7383001;19;20148;-70
2023/08/09 11:26:56;;;;;;;0.00;0.00;;;;;;;;;;7383226;19;20133;-70
2023/08/09 11:29:26;;;;;;;0.00;0.00;;;;;;;;;;7384422;19;20137;-71
2023/08/09 11:31:56;;;;;;;0.00;0.00;;;;;;;;;;7386026;19;20148;-72
2023/08/09 11:34:26;;;;;;;0.00;0.00;;;;;;;;;;7380269;19;20191;-71
2023/08/09 11:36:56;;;;;;;0.00;0.00;;;;;;;;;;7385121;19;20210;-70
2023/08/09 11:39:28;;;;;;;0.00;0.00;;;;;;;;;;7382422;19;20161;-71
2023/08/09 11:41:58;;;;;;;0.00;0.00;;;;;;;;;;7385211;19;20148;-71
2023/08/09 11:44:28;;;;;;;0.00;0.00;;;;;;;;;;7381119;19;20189;-68
2023/08/09 11:46:59;;;;;;;0.00;0.00;;;;;;;;;;7383078;19;20150;-74
2023/08/09 11:49:28;;;;;;;0.00;0.00;;;;;;;;;;7383970;19;20148;-69
2023/08/09 11:51:57;;;;;;;0.00;0.00;;;;;;;;;;7385500;19;20157;-73
2023/08/09 11:54:29;;;;;;;0.00;0.00;;;;;;;;;;7380494;19;20277;-72
2023/08/09 11:56:59;;;;;;;0.00;0.00;;;;;;;;;;7381740;19;20133;-71
2023/08/09 11:59:28;;;;;;;0.00;0.00;;;;;;;;;;7382343;19;20157;-70
2023/08/09 12:01:58;;;;;;;0.00;0.00;;;;;;;;;;7384996;19;20220;-75
2023/08/09 12:04:29;;;;;;;0.00;0.00;;;;;;;;;;7380082;19;20179;-71
2023/08/09 12:06:59;;;;;;;0.00;0.00;;;;;;;;;;7382304;19;20145;-70
2023/08/09 12:09:35;;;;;;;0.00;0.00;;;;;;;;;;7383266;19;20136;-70
2023/08/09 12:12:10;;;;;;;0.00;0.00;;;;;;;;;;7381906;19;20156;-70
2023/08/09 12:14:41;;;;;;;0.00;0.00;;;;;;;;;;7382591;19;20148;-71
2023/08/09 12:17:10;;;;;;;0.00;0.00;;;;;;;;;;7382300;19;20155;-71
2023/08/09 12:19:39;;;;;;;0.00;0.00;;;;;;;;;;7382428;19;20148;-70
2023/08/09 12:22:08;;;;;;;0.00;0.00;;;;;;;;;;7382958;19;20164;-72
2023/08/09 12:24:40;;;;;;;0.00;0.00;;;;;;;;;;7381970;19;20178;-69
2023/08/09 12:27:09;;;;;;;0.00;0.00;;;;;;;;;;7380865;19;20162;-71
2023/08/09 12:29:38;;;;;;;0.00;0.00;;;;;;;;;;7381831;19;20149;-70
2023/08/09 12:32:08;;;;;;;0.00;0.00;;;;;;;;;;7382089;19;20160;-70
2023/08/09 12:34:37;;;;;;;0.00;0.00;;;;;;;;;;7380532;19;20151;-72
2023/08/09 12:37:06;;;;;;;0.00;0.00;;;;;;;;;;7381565;19;20152;-69
2023/08/09 12:39:37;;;;;;;0.00;0.00;;;;;;;;;;7381286;19;20167;-69
2023/08/09 12:42:08;;;;;;;0.00;0.00;;;;;;;;;;7377424;19;20173;-72
2023/08/09 12:44:38;;;;;;;0.00;0.00;;;;;;;;;;7370049;19;20133;-72
2023/08/09 12:47:07;;;;;;;0.00;0.00;;;;;;;;;;7370989;19;20208;-71
2023/08/09 12:49:36;;;;;;;0.00;0.00;;;;;;;;;;7376104;19;20156;-71
2023/08/09 12:52:05;;;;;;;0.00;0.00;;;;;;;;;;7382087;19;20137;-69
2023/08/09 12:54:34;;;;;;;0.00;0.00;;;;;;;;;;7378858;19;20180;-71
2023/08/09 12:57:03;;;;;;;0.00;0.00;;;;;;;;;;7378025;19;20160;-71
2023/08/09 12:59:34;;;;;;;0.00;0.00;;;;;;;;;;7381505;19;20128;-70
2023/08/09 13:02:03;;;;;;;0.00;0.00;;;;;;;;;;7383140;19;20335;-70
2023/08/09 13:04:32;;;;;;;0.00;0.00;;;;;;;;;;7378051;19;20188;-70
2023/08/09 13:07:01;;;;;;;0.00;0.00;;;;;;;;;;7379460;19;20246;-71
2023/08/09 13:09:30;;;;;;;0.00;0.00;;;;;;;;;;7380092;19;20290;-70
2023/08/09 13:12:06;;;;;;;0.00;0.00;;;;;;;;;;7382808;19;20246;-70
2023/08/09 13:14:38;;;;;;;0.00;0.00;;;;;;;;;;7380903;19;20200;-71
2023/08/09 13:17:08;;;;;;;0.00;0.00;;;;;;;;;;7380569;19;20156;-70
2023/08/09 13:19:37;;;;;;;0.00;0.00;;;;;;;;;;7381536;19;20160;-69
2023/08/09 13:22:06;;;;;;;0.00;0.00;;;;;;;;;;7380217;19;20224;-72
2023/08/09 13:24:35;;;;;;;0.00;0.00;;;;;;;;;;7381029;19;20137;-70
2023/08/09 13:27:04;;;;;;;0.00;0.00;;;;;;;;;;7380361;19;20137;-71
2023/08/09 13:29:33;;;;;;;0.00;0.00;;;;;;;;;;7379821;19;20229;-69
2023/08/09 13:32:04;;;;;;;0.00;0.00;;;;;;;;;;7382552;19;20136;-71
2023/08/09 13:34:34;;;;;;;0.00;0.00;;;;;;;;;;7379935;19;20681;-71
2023/08/09 13:37:03;;;;;;;0.00;0.00;;;;;;;;;;7380741;19;20141;-71
2023/08/09 13:39:32;;;;;;;0.00;0.00;;;;;;;;;;7380832;19;20659;-70
2023/08/09 13:42:01;;;;;;;0.00;0.00;;;;;;;;;;7381555;19;20140;-73
2023/08/09 13:44:30;;;;;;;0.00;0.00;;;;;;;;;;7379892;19;20628;-72
2023/08/09 13:46:59;;;;;;;0.00;0.00;;;;;;;;;;7378394;19;20160;-72
2023/08/09 13:49:31;;;;;;;0.00;0.00;;;;;;;;;;7381448;19;20173;-72
2023/08/09 13:52:00;;;;;;;0.00;0.00;;;;;;;;;;7380174;19;20168;-71
2023/08/09 13:54:29;;;;;;;0.00;0.00;;;;;;;;;;7378383;19;20148;-73
2023/08/09 13:56:59;;;;;;;0.00;0.00;;;;;;;;;;7378659;19;20141;-70
2023/08/09 13:59:28;;;;;;;0.00;0.00;;;;;;;;;;7378706;19;20149;-68
2023/08/09 14:01:57;;;;;;;0.00;0.00;;;;;;;;;;7380175;19;20133;-70
2023/08/09 14:04:26;;;;;;;0.00;0.00;;;;;;;;;;7376652;19;20203;-70
2023/08/09 14:06:59;;;;;;;0.00;0.00;;;;;;;;;;7376629;19;20141;-69
2023/08/09 14:09:28;;;;;;;0.00;0.00;;;;;;;;;;7380824;19;20140;-71
2023/08/09 14:11:57;;;;;;;0.00;0.00;;;;;;;;;;7376059;19;20169;-71
2023/08/09 14:14:26;;;;;;;0.00;0.00;;;;;;;;;;7377019;19;20180;-67
2023/08/09 14:16:57;;;;;;;0.00;0.00;;;;;;;;;;7380064;19;20140;-70
2023/08/09 14:19:27;;;;;;;0.00;0.00;;;;;;;;;;7382408;19;20157;-70
2023/08/09 14:21:58;;;;;;;0.00;0.00;;;;;;;;;;7386015;19;20180;-70
2023/08/09 14:24:27;;;;;;;0.00;0.00;;;;;;;;;;7384701;19;20185;-72
2023/08/09 14:26:56;;;;;;;0.00;0.00;;;;;;;;;;7384049;19;20141;-71
2023/08/09 14:29:25;;;;;;;0.00;0.00;;;;;;;;;;7385803;19;20164;-67
2023/08/09 14:31:54;;;;;;;0.00;0.00;;;;;;;;;;7384761;19;20141;-69
2023/08/09 14:34:23;;;;;;;0.00;0.00;;;;;;;;;;7384787;19;20148;-69
2023/08/09 14:36:52;;;;;;;0.00;0.00;;;;;;;;;;7384592;19;20168;-69
2023/08/09 14:39:23;;;;;;;0.00;0.00;;;;;;;;;;7384579;19;20199;-71
2023/08/09 14:41:52;;;;;;;0.00;0.00;;;;;;;;;;7385220;19;20153;-70
2023/08/09 14:44:21;;;;;;;0.00;0.00;;;;;;;;;;7383290;19;20180;-69
2023/08/09 14:46:50;;;;;;;0.00;0.00;;;;;;;;;;7382455;19;20153;-69
2023/08/09 14:49:19;;;;;;;0.00;0.00;;;;;;;;;;7386056;19;20164;-69